Time;durP1;ratioP1;P1;durP2;ratioP2;P2;SDS_P1;SDS_P2;PMS_P1;PMS_P2;Temp;Humidity;BMP_temperature;BMP_pressure;BME280_temperature;BME280_humidity;BME280_pressure;Samples;Min_cycle;Max_cycle;Signal;HPM_P1;HPM_P2
2022/03/17 00:01:40;;;;;;;20.58;15.18;;;;;;;;;;5059832;28;21090;-84
2022/03/17 00:04:06;;;;;;;20.40;15.05;;;;;;;;;;5059996;28;20463;-84
2022/03/17 00:06:32;;;;;;;23.97;15.83;;;;;;;;;;5061724;28;20430;-83
2022/03/17 00:09:00;;;;;;;22.85;15.65;;;;;;;;;;5060403;28;20452;-83
2022/03/17 00:11:29;;;;;;;22.88;16.48;;;;;;;;;;5060045;28;20942;-84
2022/03/17 00:13:55;;;;;;;22.05;15.85;;;;;;;;;;5061822;28;20435;-84
2022/03/17 00:16:23;;;;;;;23.25;16.08;;;;;;;;;;5059917;28;20429;-84
2022/03/17 00:18:50;;;;;;;21.83;15.30;;;;;;;;;;5061657;28;20841;-82
2022/03/17 00:21:16;;;;;;;20.65;15.90;;;;;;;;;;5061647;28;20429;-84
2022/03/17 00:23:42;;;;;;;22.38;15.45;;;;;;;;;;5062509;28;20421;-84
2022/03/17 00:26:09;;;;;;;21.85;15.88;;;;;;;;;;5063352;28;20442;-83
2022/03/17 00:28:35;;;;;;;18.52;14.98;;;;;;;;;;5061679;28;20586;-83
2022/03/17 00:31:01;;;;;;;20.55;15.38;;;;;;;;;;5062242;28;20420;-84
2022/03/17 00:33:29;;;;;;;20.10;15.80;;;;;;;;;;5062157;28;20481;-84
2022/03/17 00:35:55;;;;;;;24.10;16.13;;;;;;;;;;5061484;28;20407;-84
2022/03/17 00:38:22;;;;;;;20.73;16.05;;;;;;;;;;5060831;28;20424;-83
2022/03/17 00:40:48;;;;;;;20.85;16.02;;;;;;;;;;5061846;28;20423;-84
2022/03/17 00:43:15;;;;;;;22.60;16.97;;;;;;;;;;5062584;28;20428;-82
2022/03/17 00:45:42;;;;;;;26.23;16.42;;;;;;;;;;5062330;28;20470;-84
2022/03/17 00:48:09;;;;;;;24.92;17.48;;;;;;;;;;5060734;28;20475;-85
2022/03/17 00:50:37;;;;;;;22.77;17.35;;;;;;;;;;5061638;28;20481;-84
2022/03/17 00:53:04;;;;;;;27.02;17.90;;;;;;;;;;5059977;28;20510;-84
2022/03/17 00:55:30;;;;;;;23.15;18.00;;;;;;;;;;5058844;28;20416;-84
2022/03/17 00:57:56;;;;;;;23.35;17.75;;;;;;;;;;5061563;28;20820;-84
2022/03/17 01:00:22;;;;;;;23.42;17.60;;;;;;;;;;5061050;28;20441;-84
2022/03/17 01:02:49;;;;;;;22.30;17.25;;;;;;;;;;5061270;28;20852;-83
2022/03/17 01:05:17;;;;;;;24.00;17.73;;;;;;;;;;5060711;28;20432;-84
2022/03/17 01:07:45;;;;;;;22.45;17.90;;;;;;;;;;5061206;28;20440;-83
2022/03/17 01:10:12;;;;;;;24.70;18.88;;;;;;;;;;5058741;28;20462;-84
2022/03/17 01:12:38;;;;;;;25.83;19.90;;;;;;;;;;5062365;28;20428;-83
2022/03/17 01:15:06;;;;;;;25.52;18.50;;;;;;;;;;5060879;28;20433;-84
2022/03/17 01:17:32;;;;;;;25.13;18.92;;;;;;;;;;5061327;28;20503;-84
2022/03/17 01:19:58;;;;;;;25.73;19.30;;;;;;;;;;5060648;28;20473;-84
2022/03/17 01:22:25;;;;;;;26.67;18.58;;;;;;;;;;5058626;28;20477;-84
2022/03/17 01:24:52;;;;;;;26.43;19.50;;;;;;;;;;5055043;28;20427;-84
2022/03/17 01:27:20;;;;;;;25.35;19.42;;;;;;;;;;5057182;28;20419;-83
2022/03/17 01:29:46;;;;;;;25.10;19.98;;;;;;;;;;5070962;23;20427;-84
2022/03/17 01:32:12;;;;;;;26.50;20.00;;;;;;;;;;5055766;28;20428;-85
2022/03/17 01:34:39;;;;;;;27.23;20.45;;;;;;;;;;5058323;28;20424;-85
2022/03/17 01:37:05;;;;;;;26.77;19.42;;;;;;;;;;5058357;28;21071;-84
2022/03/17 01:39:31;;;;;;;24.57;19.33;;;;;;;;;;5057423;28;20426;-83
2022/03/17 01:41:59;;;;;;;23.77;19.58;;;;;;;;;;5054616;28;20427;-85
2022/03/17 01:44:26;;;;;;;27.95;20.63;;;;;;;;;;5059932;28;20956;-84
2022/03/17 01:49:36;;;;;;;26.88;20.88;;;;;;;;;;5058227;28;20455;-83
2022/03/17 01:52:02;;;;;;;27.38;18.95;;;;;;;;;;5058257;28;20764;-85
2022/03/17 01:54:29;;;;;;;23.98;19.77;;;;;;;;;;5058675;28;20465;-83
2022/03/17 01:56:55;;;;;;;26.98;19.95;;;;;;;;;;5053988;28;20487;-84
2022/03/17 01:59:23;;;;;;;26.02;20.17;;;;;;;;;;5056175;28;20431;-84
2022/03/17 02:01:50;;;;;;;25.20;19.27;;;;;;;;;;5056386;28;20996;-83
2022/03/17 02:04:16;;;;;;;23.67;19.90;;;;;;;;;;5057919;28;20450;-84
2022/03/17 02:06:42;;;;;;;27.17;20.48;;;;;;;;;;5056930;28;20450;-83
2022/03/17 02:09:08;;;;;;;26.83;19.67;;;;;;;;;;5056213;28;20488;-86
2022/03/17 02:14:21;;;;;;;28.45;21.40;;;;;;;;;;5059590;28;20416;-87
2022/03/17 02:16:48;;;;;;;28.10;20.83;;;;;;;;;;5059907;28;20826;-85
2022/03/17 02:19:14;;;;;;;28.05;21.60;;;;;;;;;;5059508;28;20415;-86
2022/03/17 02:21:41;;;;;;;26.43;20.17;;;;;;;;;;5058060;28;20421;-86
2022/03/17 02:26:53;;;;;;;28.40;21.33;;;;;;;;;;5058562;28;20452;-87
2022/03/17 02:29:19;;;;;;;25.83;20.87;;;;;;;;;;5059098;28;20429;-86
2022/03/17 02:31:45;;;;;;;27.23;21.50;;;;;;;;;;5056111;28;20428;-84
2022/03/17 02:34:12;;;;;;;29.67;21.80;;;;;;;;;;5059229;28;20422;-85
2022/03/17 02:36:45;;;;;;;28.80;20.90;;;;;;;;;;5060012;28;20429;-86
2022/03/17 02:39:13;;;;;;;26.80;22.05;;;;;;;;;;5058615;28;20479;-85
2022/03/17 02:41:40;;;;;;;28.25;20.98;;;;;;;;;;5061344;28;20440;-83
2022/03/17 02:44:06;;;;;;;26.80;21.27;;;;;;;;;;5067002;28;20483;-84
2022/03/17 02:46:32;;;;;;;26.33;21.60;;;;;;;;;;5054865;28;20417;-86
2022/03/17 02:48:59;;;;;;;30.20;23.17;;;;;;;;;;5055561;28;20498;-84
2022/03/17 02:51:25;;;;;;;30.35;21.67;;;;;;;;;;5058499;28;20833;-86
2022/03/17 02:53:51;;;;;;;29.98;22.83;;;;;;;;;;5055760;28;20457;-85
2022/03/17 02:56:19;;;;;;;29.75;22.63;;;;;;;;;;5058120;28;20413;-85
2022/03/17 02:58:45;;;;;;;29.63;22.63;;;;;;;;;;5054570;28;20481;-85
2022/03/17 03:01:11;;;;;;;30.88;22.25;;;;;;;;;;5057460;28;20427;-85
2022/03/17 03:03:37;;;;;;;28.13;22.15;;;;;;;;;;5060115;28;20486;-84
2022/03/17 03:06:04;;;;;;;28.15;21.60;;;;;;;;;;5059944;28;20421;-84
2022/03/17 03:08:30;;;;;;;31.08;23.00;;;;;;;;;;5054425;28;20431;-84
2022/03/17 03:10:56;;;;;;;29.60;23.77;;;;;;;;;;5057625;28;20399;-84
2022/03/17 03:13:24;;;;;;;29.65;22.40;;;;;;;;;;5056431;28;20428;-84
2022/03/17 03:15:51;;;;;;;31.40;23.85;;;;;;;;;;5055535;28;20433;-86
2022/03/17 03:18:17;;;;;;;30.58;24.20;;;;;;;;;;5055954;28;20787;-84
2022/03/17 03:20:43;;;;;;;31.45;23.30;;;;;;;;;;5054160;28;20433;-85
2022/03/17 03:23:10;;;;;;;29.90;23.30;;;;;;;;;;5055265;28;20423;-84
2022/03/17 03:25:36;;;;;;;32.75;24.23;;;;;;;;;;5057601;28;20471;-84
2022/03/17 03:28:05;;;;;;;29.67;23.55;;;;;;;;;;5055791;28;20471;-85
2022/03/17 03:30:33;;;;;;;29.60;23.10;;;;;;;;;;5053946;28;20413;-85
2022/03/17 03:32:59;;;;;;;29.45;23.60;;;;;;;;;;5055384;28;20493;-84
2022/03/17 03:38:09;;;;;;;31.53;24.73;;;;;;;;;;5057301;28;20517;-83
2022/03/17 03:40:35;;;;;;;35.78;26.20;;;;;;;;;;5060268;28;20475;-84
2022/03/17 03:43:02;;;;;;;30.63;24.90;;;;;;;;;;5061080;28;20429;-86
2022/03/17 03:45:28;;;;;;;35.63;26.60;;;;;;;;;;5060465;28;20457;-85
2022/03/17 03:47:56;;;;;;;34.28;25.85;;;;;;;;;;5060561;28;20407;-85
2022/03/17 03:50:22;;;;;;;32.60;25.75;;;;;;;;;;5059335;28;20415;-84
2022/03/17 03:52:48;;;;;;;31.98;25.60;;;;;;;;;;5060671;28;20413;-84
2022/03/17 03:55:14;;;;;;;33.58;25.63;;;;;;;;;;5061259;28;20436;-85
2022/03/17 03:57:42;;;;;;;35.35;26.88;;;;;;;;;;5060446;28;20423;-85
2022/03/17 04:03:04;;;;;;;34.75;27.00;;;;;;;;;;5014525;28;20925;-85
2022/03/17 04:05:30;;;;;;;34.38;27.02;;;;;;;;;;5060957;28;20919;-83
2022/03/17 04:07:57;;;;;;;36.80;28.35;;;;;;;;;;5060477;28;20455;-85
2022/03/17 04:10:23;;;;;;;35.37;26.80;;;;;;;;;;5056922;28;20459;-86
2022/03/17 04:12:50;;;;;;;39.42;28.33;;;;;;;;;;5062042;28;20409;-85
2022/03/17 04:15:16;;;;;;;39.03;28.00;;;;;;;;;;5060543;28;20699;-84
2022/03/17 04:17:42;;;;;;;37.55;27.77;;;;;;;;;;5060655;28;20431;-84
2022/03/17 04:20:11;;;;;;;39.90;28.20;;;;;;;;;;5058087;28;20980;-86
2022/03/17 04:22:37;;;;;;;43.35;29.08;;;;;;;;;;5061083;28;20479;-84
2022/03/17 04:25:04;;;;;;;42.15;28.40;;;;;;;;;;5059838;28;20500;-84
2022/03/17 04:27:31;;;;;;;43.40;30.58;;;;;;;;;;5059327;28;20423;-85
2022/03/17 04:29:57;;;;;;;36.03;28.77;;;;;;;;;;5058640;28;20459;-85
2022/03/17 04:32:23;;;;;;;41.45;29.30;;;;;;;;;;5055766;28;20429;-82
2022/03/17 04:34:49;;;;;;;43.53;29.20;;;;;;;;;;5060629;28;20895;-81
2022/03/17 04:37:17;;;;;;;43.50;31.00;;;;;;;;;;5060377;28;20420;-83
2022/03/17 04:39:43;;;;;;;40.45;29.75;;;;;;;;;;5060071;28;20421;-83
2022/03/17 04:42:09;;;;;;;39.27;28.60;;;;;;;;;;5057926;28;20439;-82
2022/03/17 04:44:36;;;;;;;43.83;30.08;;;;;;;;;;5060536;28;20956;-84
2022/03/17 04:47:02;;;;;;;44.78;31.20;;;;;;;;;;5060830;28;21047;-82
2022/03/17 04:49:29;;;;;;;38.33;30.42;;;;;;;;;;5060023;28;20430;-83
2022/03/17 04:51:56;;;;;;;40.72;30.13;;;;;;;;;;5059579;28;20415;-83
2022/03/17 04:54:22;;;;;;;43.17;30.58;;;;;;;;;;5060091;28;20436;-82
2022/03/17 04:56:48;;;;;;;40.60;29.77;;;;;;;;;;5060806;28;20427;-84
2022/03/17 04:59:15;;;;;;;40.55;29.83;;;;;;;;;;5057620;28;20455;-84
2022/03/17 05:01:41;;;;;;;38.88;30.60;;;;;;;;;;5056317;28;20463;-83
2022/03/17 05:04:07;;;;;;;43.38;30.58;;;;;;;;;;5060779;28;20415;-85
2022/03/17 05:06:34;;;;;;;40.83;31.42;;;;;;;;;;5063439;28;20417;-84
2022/03/17 05:09:00;;;;;;;40.97;30.48;;;;;;;;;;5066393;28;20942;-82
2022/03/17 05:11:28;;;;;;;40.00;30.15;;;;;;;;;;5060014;28;21141;-82
2022/03/17 05:13:54;;;;;;;40.90;29.80;;;;;;;;;;5059865;28;20421;-84
2022/03/17 05:16:20;;;;;;;36.43;28.50;;;;;;;;;;5057984;28;20426;-82
2022/03/17 05:18:47;;;;;;;38.42;29.33;;;;;;;;;;5057367;28;20445;-82
2022/03/17 05:21:13;;;;;;;38.20;29.15;;;;;;;;;;5057026;28;20453;-83
2022/03/17 05:23:39;;;;;;;37.95;29.00;;;;;;;;;;5058193;28;20419;-82
2022/03/17 05:26:08;;;;;;;39.05;31.48;;;;;;;;;;5054052;28;21117;-82
2022/03/17 05:28:36;;;;;;;40.17;30.50;;;;;;;;;;5050518;28;20421;-80
2022/03/17 05:31:02;;;;;;;39.30;30.30;;;;;;;;;;5055341;28;20747;-83
2022/03/17 05:33:28;;;;;;;40.47;30.90;;;;;;;;;;5055928;28;20499;-83
2022/03/17 05:35:55;;;;;;;42.03;30.92;;;;;;;;;;5057977;28;20423;-81
2022/03/17 05:38:21;;;;;;;41.33;31.67;;;;;;;;;;5058112;28;20465;-82
2022/03/17 05:40:47;;;;;;;39.17;30.63;;;;;;;;;;5059821;28;20412;-81
2022/03/17 05:43:14;;;;;;;41.77;30.83;;;;;;;;;;5059435;28;20534;-82
2022/03/17 05:45:43;;;;;;;39.70;31.42;;;;;;;;;;5060370;28;20403;-83
2022/03/17 05:48:10;;;;;;;47.08;33.15;;;;;;;;;;5058454;28;20415;-81
2022/03/17 05:50:37;;;;;;;40.20;31.13;;;;;;;;;;5055500;28;20413;-82
2022/03/17 05:53:03;;;;;;;42.10;32.03;;;;;;;;;;5057240;28;20555;-82
2022/03/17 05:55:30;;;;;;;43.70;33.25;;;;;;;;;;5056384;28;20416;-82
2022/03/17 05:57:57;;;;;;;41.53;32.20;;;;;;;;;;5058677;28;20441;-82
2022/03/17 06:00:24;;;;;;;41.13;31.52;;;;;;;;;;5058219;28;21263;-82
2022/03/17 06:02:52;;;;;;;41.00;31.00;;;;;;;;;;5057919;28;20429;-83
2022/03/17 06:05:18;;;;;;;47.75;33.35;;;;;;;;;;5062025;28;20433;-82
2022/03/17 06:07:45;;;;;;;43.70;31.98;;;;;;;;;;5059620;28;20415;-82
2022/03/17 06:10:12;;;;;;;44.03;31.75;;;;;;;;;;5057804;28;20453;-84
2022/03/17 06:12:38;;;;;;;41.73;31.93;;;;;;;;;;5058313;28;20423;-82
2022/03/17 06:15:05;;;;;;;46.90;32.45;;;;;;;;;;5057064;28;20430;-82
2022/03/17 06:17:41;;;;;;;39.97;31.40;;;;;;;;;;5058583;28;20507;-82
2022/03/17 06:20:10;;;;;;;42.38;31.90;;;;;;;;;;5057698;28;20481;-82
2022/03/17 06:22:37;;;;;;;43.42;31.88;;;;;;;;;;5059630;28;20427;-83
2022/03/17 06:25:03;;;;;;;41.60;31.80;;;;;;;;;;5061327;28;20423;-81
2022/03/17 06:27:30;;;;;;;42.42;32.33;;;;;;;;;;5061596;28;20466;-82
2022/03/17 06:29:56;;;;;;;40.08;30.45;;;;;;;;;;5058992;28;20429;-82
2022/03/17 06:32:24;;;;;;;43.70;31.85;;;;;;;;;;5058509;28;20818;-84
2022/03/17 06:34:50;;;;;;;43.13;31.77;;;;;;;;;;5059497;28;20432;-84
2022/03/17 06:37:18;;;;;;;44.83;33.83;;;;;;;;;;5056687;28;20501;-83
2022/03/17 06:39:44;;;;;;;45.72;32.75;;;;;;;;;;5055433;28;20713;-83
2022/03/17 06:42:10;;;;;;;47.27;34.20;;;;;;;;;;5055356;28;20425;-84
2022/03/17 06:44:36;;;;;;;46.92;34.58;;;;;;;;;;5057793;28;20440;-82
2022/03/17 06:47:02;;;;;;;48.20;34.55;;;;;;;;;;5058811;28;21004;-84
2022/03/17 06:49:29;;;;;;;46.25;34.72;;;;;;;;;;5059924;28;20412;-83
2022/03/17 06:51:56;;;;;;;51.55;37.17;;;;;;;;;;5058152;28;20427;-82
2022/03/17 06:54:23;;;;;;;53.03;38.22;;;;;;;;;;5060083;28;20415;-84
2022/03/17 06:56:49;;;;;;;55.15;39.20;;;;;;;;;;5055626;28;20475;-84
2022/03/17 06:59:16;;;;;;;55.65;39.20;;;;;;;;;;5053828;28;20433;-85
2022/03/17 07:01:42;;;;;;;53.58;38.15;;;;;;;;;;5057582;28;20424;-83
2022/03/17 07:04:09;;;;;;;55.47;39.15;;;;;;;;;;5060205;28;20429;-84
2022/03/17 07:06:35;;;;;;;55.83;38.88;;;;;;;;;;5057324;28;20451;-84
2022/03/17 07:09:01;;;;;;;58.78;39.95;;;;;;;;;;5059320;28;20425;-84
2022/03/17 07:11:29;;;;;;;56.55;40.28;;;;;;;;;;5059111;28;20826;-85
2022/03/17 07:13:55;;;;;;;55.27;40.10;;;;;;;;;;5062789;28;20443;-84
2022/03/17 07:16:21;;;;;;;60.80;40.75;;;;;;;;;;5063910;28;20409;-84
2022/03/17 07:18:49;;;;;;;56.23;39.10;;;;;;;;;;5064831;28;20482;-84
2022/03/17 07:21:16;;;;;;;61.97;43.08;;;;;;;;;;5065087;28;20417;-85
2022/03/17 07:23:42;;;;;;;63.17;44.53;;;;;;;;;;5066544;28;20415;-80
2022/03/17 07:26:08;;;;;;;63.47;44.80;;;;;;;;;;5064795;28;20481;-84
2022/03/17 07:28:36;;;;;;;61.95;43.80;;;;;;;;;;5065905;28;20821;-84
2022/03/17 07:31:02;;;;;;;61.83;45.27;;;;;;;;;;5108187;22;20548;-82
2022/03/17 07:33:28;;;;;;;64.05;43.63;;;;;;;;;;5061736;28;20432;-84
2022/03/17 07:35:54;;;;;;;63.25;43.78;;;;;;;;;;5061660;28;20411;-83
2022/03/17 07:38:20;;;;;;;66.28;44.50;;;;;;;;;;5061814;28;20487;-82
2022/03/17 07:40:47;;;;;;;69.32;45.72;;;;;;;;;;5061095;28;20457;-84
2022/03/17 07:43:13;;;;;;;63.65;43.38;;;;;;;;;;5062926;28;20431;-79
2022/03/17 07:45:41;;;;;;;69.47;47.22;;;;;;;;;;5062985;28;20490;-81
2022/03/17 07:48:07;;;;;;;66.45;44.88;;;;;;;;;;5058598;28;20433;-79
2022/03/17 07:50:33;;;;;;;66.90;47.40;;;;;;;;;;5059353;28;20471;-80
2022/03/17 07:53:00;;;;;;;65.57;45.70;;;;;;;;;;5062602;28;20403;-80
2022/03/17 07:55:27;;;;;;;65.63;43.70;;;;;;;;;;5061340;28;20469;-80
2022/03/17 07:57:53;;;;;;;69.37;47.03;;;;;;;;;;5062527;28;20429;-81
2022/03/17 08:00:19;;;;;;;67.63;47.10;;;;;;;;;;5061490;28;20440;-79
2022/03/17 08:02:47;;;;;;;69.55;46.75;;;;;;;;;;5060088;28;20454;-80
2022/03/17 08:05:14;;;;;;;69.28;47.50;;;;;;;;;;5058689;28;20494;-78
2022/03/17 08:07:40;;;;;;;68.88;47.72;;;;;;;;;;5062874;28;20471;-80
2022/03/17 08:10:07;;;;;;;71.25;48.22;;;;;;;;;;5059908;28;20441;-78
2022/03/17 08:12:34;;;;;;;73.93;50.28;;;;;;;;;;5061555;28;20484;-79
2022/03/17 08:15:01;;;;;;;70.95;47.83;;;;;;;;;;5060675;28;20910;-81
2022/03/17 08:17:28;;;;;;;77.45;49.40;;;;;;;;;;5060125;28;20483;-80
2022/03/17 08:19:57;;;;;;;72.65;48.10;;;;;;;;;;5059604;28;20429;-80
2022/03/17 08:22:23;;;;;;;68.75;46.70;;;;;;;;;;5059498;28;20514;-79
2022/03/17 08:24:50;;;;;;;67.70;46.63;;;;;;;;;;5059537;28;20429;-81
2022/03/17 08:27:16;;;;;;;72.10;47.50;;;;;;;;;;5059781;28;20429;-78
2022/03/17 08:29:43;;;;;;;76.35;47.60;;;;;;;;;;5062130;28;20409;-79
2022/03/17 08:32:09;;;;;;;70.63;47.80;;;;;;;;;;5057999;28;20922;-81
2022/03/17 08:34:36;;;;;;;72.82;49.42;;;;;;;;;;5058943;28;20496;-81
2022/03/17 08:37:04;;;;;;;70.05;48.17;;;;;;;;;;5060253;28;20430;-80
2022/03/17 08:39:30;;;;;;;63.00;41.40;;;;;;;;;;5061147;28;20462;-81
2022/03/17 08:41:56;;;;;;;62.75;41.67;;;;;;;;;;5059818;28;20415;-82
2022/03/17 08:44:23;;;;;;;63.47;42.42;;;;;;;;;;5060536;28;20432;-82
2022/03/17 08:49:33;;;;;;;45.08;31.27;;;;;;;;;;5063170;28;20921;-83
2022/03/17 08:52:00;;;;;;;39.72;27.65;;;;;;;;;;5058924;28;20421;-82
2022/03/17 08:54:28;;;;;;;35.28;26.15;;;;;;;;;;5060218;28;20476;-82
2022/03/17 08:56:59;;;;;;;36.05;26.42;;;;;;;;;;5060529;28;20846;-82
2022/03/17 08:59:25;;;;;;;33.95;23.80;;;;;;;;;;5059798;28;20435;-81
2022/03/17 09:01:52;;;;;;;28.73;20.77;;;;;;;;;;5060383;28;20491;-81
2022/03/17 09:04:18;;;;;;;24.35;17.30;;;;;;;;;;5061513;28;20433;-82
2022/03/17 09:06:44;;;;;;;21.17;15.10;;;;;;;;;;5059302;28;20467;-81
2022/03/17 09:09:10;;;;;;;21.50;14.60;;;;;;;;;;5060799;28;20432;-81
2022/03/17 09:11:38;;;;;;;21.58;13.65;;;;;;;;;;5060751;28;20914;-81
2022/03/17 09:14:04;;;;;;;18.15;12.13;;;;;;;;;;5058819;28;20433;-82
2022/03/17 09:16:31;;;;;;;16.60;12.65;;;;;;;;;;5059171;28;20495;-82
2022/03/17 09:18:58;;;;;;;17.67;11.68;;;;;;;;;;5060880;28;20484;-81
2022/03/17 09:21:25;;;;;;;18.00;11.93;;;;;;;;;;5059457;28;20415;-81
2022/03/17 09:23:51;;;;;;;20.27;9.80;;;;;;;;;;5060593;28;20459;-82
2022/03/17 09:26:17;;;;;;;17.67;10.90;;;;;;;;;;5059075;28;20869;-81
2022/03/17 09:28:45;;;;;;;14.13;9.35;;;;;;;;;;5059646;28;20424;-81
2022/03/17 09:31:11;;;;;;;12.88;9.10;;;;;;;;;;5057584;28;20431;-82
2022/03/17 09:33:38;;;;;;;16.98;9.70;;;;;;;;;;5059884;28;20436;-82
2022/03/17 09:36:04;;;;;;;14.60;8.68;;;;;;;;;;5057014;28;20479;-81
2022/03/17 09:38:31;;;;;;;12.75;8.57;;;;;;;;;;5060047;28;20491;-82
2022/03/17 09:40:58;;;;;;;14.07;8.57;;;;;;;;;;5059190;28;20440;-80
2022/03/17 09:43:31;;;;;;;15.10;7.88;;;;;;;;;;5059978;28;20947;-81
2022/03/17 09:45:59;;;;;;;13.80;7.30;;;;;;;;;;5058717;28;20447;-81
2022/03/17 09:48:27;;;;;;;11.70;6.80;;;;;;;;;;5058384;28;20821;-81
2022/03/17 09:50:57;;;;;;;10.35;6.32;;;;;;;;;;5058143;28;20421;-82
2022/03/17 09:53:24;;;;;;;12.95;6.10;;;;;;;;;;5058531;28;20444;-81
2022/03/17 09:55:50;;;;;;;11.57;6.70;;;;;;;;;;5059313;28;20788;-80
2022/03/17 09:58:16;;;;;;;9.40;5.65;;;;;;;;;;5056781;28;20868;-82
2022/03/17 10:00:49;;;;;;;11.25;5.50;;;;;;;;;;5059015;28;20464;-81
2022/03/17 10:03:16;;;;;;;8.80;5.30;;;;;;;;;;5058114;28;21004;-82
2022/03/17 10:05:43;;;;;;;10.65;5.35;;;;;;;;;;5056680;28;20510;-79
2022/03/17 10:08:09;;;;;;;8.95;4.70;;;;;;;;;;5058052;28;20483;-82
2022/03/17 10:10:36;;;;;;;8.13;4.28;;;;;;;;;;5058332;28;20942;-82
2022/03/17 10:13:06;;;;;;;8.30;3.83;;;;;;;;;;5056856;28;20923;-81
2022/03/17 10:15:32;;;;;;;9.68;4.30;;;;;;;;;;5056217;28;20431;-81
2022/03/17 10:18:01;;;;;;;10.30;3.65;;;;;;;;;;5057591;28;21278;-82
2022/03/17 10:20:31;;;;;;;9.18;3.80;;;;;;;;;;5057211;28;20429;-81
2022/03/17 10:22:57;;;;;;;10.52;4.00;;;;;;;;;;5055066;28;20916;-81
2022/03/17 10:25:25;;;;;;;8.38;3.60;;;;;;;;;;5059305;28;20459;-80
2022/03/17 10:27:54;;;;;;;8.50;3.65;;;;;;;;;;5059244;28;20431;-81
2022/03/17 10:30:24;;;;;;;5.43;3.25;;;;;;;;;;5054970;28;20438;-82
2022/03/17 10:32:55;;;;;;;9.25;3.20;;;;;;;;;;5056344;28;20432;-82
2022/03/17 10:35:24;;;;;;;8.95;2.88;;;;;;;;;;5057602;28;21174;-81
2022/03/17 10:37:51;;;;;;;7.30;2.40;;;;;;;;;;5059735;28;20402;-81
2022/03/17 10:40:18;;;;;;;6.72;2.60;;;;;;;;;;5056894;28;20493;-82
2022/03/17 10:42:44;;;;;;;7.05;3.00;;;;;;;;;;5056742;28;20858;-81
2022/03/17 10:45:10;;;;;;;5.65;2.88;;;;;;;;;;5057884;28;20432;-82
2022/03/17 10:47:38;;;;;;;8.27;3.15;;;;;;;;;;5057217;28;20433;-81
2022/03/17 10:50:09;;;;;;;9.07;3.63;;;;;;;;;;5057919;28;20405;-81
2022/03/17 10:52:49;;;;;;;5.28;2.20;;;;;;;;;;5058720;28;20427;-81
2022/03/17 10:55:19;;;;;;;8.40;2.40;;;;;;;;;;5057753;28;20429;-81
2022/03/17 10:57:45;;;;;;;7.50;2.50;;;;;;;;;;5057623;28;20433;-81
2022/03/17 11:00:19;;;;;;;9.10;3.17;;;;;;;;;;5056966;28;20429;-79
2022/03/17 11:02:46;;;;;;;9.30;2.67;;;;;;;;;;5057372;28;20459;-80
2022/03/17 11:05:14;;;;;;;9.73;3.00;;;;;;;;;;5057902;28;20467;-81
2022/03/17 11:07:40;;;;;;;7.35;2.10;;;;;;;;;;5056509;28;20439;-81
2022/03/17 11:10:07;;;;;;;12.10;2.57;;;;;;;;;;5058231;28;20463;-82
2022/03/17 11:12:35;;;;;;;7.72;2.08;;;;;;;;;;5060154;28;20427;-81
2022/03/17 11:15:01;;;;;;;10.15;2.40;;;;;;;;;;5056920;28;20544;-82
2022/03/17 11:17:30;;;;;;;11.68;2.97;;;;;;;;;;5056518;28;20548;-82
2022/03/17 11:19:59;;;;;;;10.20;2.70;;;;;;;;;;5059182;28;20429;-81
2022/03/17 11:22:28;;;;;;;11.33;2.90;;;;;;;;;;5054544;28;20451;-82
2022/03/17 11:25:10;;;;;;;10.55;3.60;;;;;;;;;;5057611;28;20423;-80
2022/03/17 11:27:46;;;;;;;11.75;3.22;;;;;;;;;;5056960;28;20419;-81
2022/03/17 11:30:13;;;;;;;9.87;2.80;;;;;;;;;;5057045;28;20903;-81
2022/03/17 11:32:48;;;;;;;15.82;3.75;;;;;;;;;;5058366;28;20903;-81
2022/03/17 11:35:17;;;;;;;10.47;3.10;;;;;;;;;;5058104;28;20479;-82
2022/03/17 11:37:43;;;;;;;9.90;2.90;;;;;;;;;;5054777;28;21002;-81
2022/03/17 11:40:10;;;;;;;14.50;3.10;;;;;;;;;;5058342;28;20913;-82
2022/03/17 11:42:37;;;;;;;14.95;3.30;;;;;;;;;;5060040;28;20848;-81
2022/03/17 11:45:19;;;;;;;14.32;3.30;;;;;;;;;;5059830;28;20492;-80
2022/03/17 11:47:47;;;;;;;10.18;2.72;;;;;;;;;;5037127;28;20441;-81
2022/03/17 11:50:24;;;;;;;10.38;2.60;;;;;;;;;;5056227;28;20922;-81
2022/03/17 11:52:51;;;;;;;9.85;2.72;;;;;;;;;;5059273;28;20415;-82
2022/03/17 11:55:34;;;;;;;9.73;2.65;;;;;;;;;;5053511;28;20644;-82
2022/03/17 11:58:19;;;;;;;9.32;3.15;;;;;;;;;;5057153;28;20915;-79
2022/03/17 12:00:46;;;;;;;10.13;2.83;;;;;;;;;;5058955;28;20450;-81
2022/03/17 12:03:13;;;;;;;11.32;3.03;;;;;;;;;;5060440;28;20427;-81
2022/03/17 12:05:42;;;;;;;9.60;3.00;;;;;;;;;;5059014;28;20495;-82
2022/03/17 12:08:08;;;;;;;17.08;3.58;;;;;;;;;;5058737;28;20450;-81
2022/03/17 12:10:54;;;;;;;16.17;3.40;;;;;;;;;;5060941;28;20836;-82
2022/03/17 12:13:20;;;;;;;13.53;3.30;;;;;;;;;;5060800;28;20439;-81
2022/03/17 12:15:54;;;;;;;14.27;3.03;;;;;;;;;;5059937;28;20453;-82
2022/03/17 12:18:22;;;;;;;13.75;3.20;;;;;;;;;;5059019;28;20850;-82
2022/03/17 12:20:50;;;;;;;15.07;3.30;;;;;;;;;;5059596;28;20506;-83
2022/03/17 12:23:35;;;;;;;13.38;3.22;;;;;;;;;;5059840;28;20432;-81
2022/03/17 12:26:05;;;;;;;15.93;3.30;;;;;;;;;;5061004;28;20425;-80
2022/03/17 12:28:32;;;;;;;13.60;3.50;;;;;;;;;;5057168;28;21000;-82
2022/03/17 12:30:58;;;;;;;12.90;3.20;;;;;;;;;;5060048;28;20421;-82
2022/03/17 12:33:26;;;;;;;10.52;2.80;;;;;;;;;;5058691;28;20536;-82
2022/03/17 12:36:03;;;;;;;11.32;3.35;;;;;;;;;;5060501;28;20419;-81
2022/03/17 12:38:30;;;;;;;11.82;3.90;;;;;;;;;;5056810;28;20436;-83
2022/03/17 12:40:57;;;;;;;13.20;3.30;;;;;;;;;;5060319;28;20430;-81
2022/03/17 12:43:24;;;;;;;10.13;3.47;;;;;;;;;;5060691;28;20842;-83
2022/03/17 12:45:51;;;;;;;11.27;3.10;;;;;;;;;;5059568;28;20431;-81
2022/03/17 12:48:18;;;;;;;9.27;3.20;;;;;;;;;;5059842;28;20508;-81
2022/03/17 12:50:47;;;;;;;13.32;3.53;;;;;;;;;;5060167;28;20458;-81
2022/03/17 12:53:13;;;;;;;12.85;2.80;;;;;;;;;;5061097;28;20500;-81
2022/03/17 12:55:39;;;;;;;15.53;3.60;;;;;;;;;;5061485;28;20453;-81
2022/03/17 12:58:05;;;;;;;14.40;3.85;;;;;;;;;;5060103;28;20437;-81
2022/03/17 13:00:32;;;;;;;7.53;3.47;;;;;;;;;;5057566;28;20422;-81
2022/03/17 13:02:59;;;;;;;17.08;4.00;;;;;;;;;;5059817;28;20433;-80
2022/03/17 13:08:12;;;;;;;12.07;3.38;;;;;;;;;;5057454;28;20544;-81
2022/03/17 13:16:03;;;;;;;12.00;3.05;;;;;;;;;;5057275;28;20429;-83
2022/03/17 13:18:39;;;;;;;13.13;3.97;;;;;;;;;;5057094;28;20432;-81
2022/03/17 13:21:06;;;;;;;15.50;4.05;;;;;;;;;;5059187;28;20549;-82
2022/03/17 13:23:36;;;;;;;11.05;3.50;;;;;;;;;;5058858;28;20436;-81
2022/03/17 13:26:03;;;;;;;11.85;3.90;;;;;;;;;;5058686;28;20441;-82
2022/03/17 13:28:29;;;;;;;16.70;3.75;;;;;;;;;;5061103;28;20416;-82
2022/03/17 13:30:56;;;;;;;13.40;3.55;;;;;;;;;;5056627;28;20481;-81
2022/03/17 13:33:25;;;;;;;13.02;3.40;;;;;;;;;;5072899;23;20435;-84
2022/03/17 13:35:52;;;;;;;11.75;3.28;;;;;;;;;;5022028;28;20416;-84
2022/03/17 13:38:19;;;;;;;17.15;3.88;;;;;;;;;;5020478;28;20441;-84
2022/03/17 13:40:48;;;;;;;12.80;3.00;;;;;;;;;;5022500;28;20421;-84
2022/03/17 13:43:15;;;;;;;12.70;2.90;;;;;;;;;;5021940;28;20436;-84
2022/03/17 13:45:42;;;;;;;14.18;3.70;;;;;;;;;;5023282;28;20800;-85
2022/03/17 13:48:09;;;;;;;8.88;3.10;;;;;;;;;;5021633;28;20440;-84
2022/03/17 13:50:38;;;;;;;9.77;3.10;;;;;;;;;;5021755;28;20945;-84
2022/03/17 13:53:06;;;;;;;9.90;3.38;;;;;;;;;;5020131;28;20431;-84
2022/03/17 13:55:33;;;;;;;16.20;3.08;;;;;;;;;;5022165;28;20864;-84
2022/03/17 13:58:10;;;;;;;12.80;3.30;;;;;;;;;;5021434;28;20419;-83
2022/03/17 14:00:37;;;;;;;9.85;3.38;;;;;;;;;;5021750;28;20929;-84
2022/03/17 14:03:14;;;;;;;11.90;4.07;;;;;;;;;;5021694;28;20500;-84
2022/03/17 14:06:14;;;;;;;7.10;2.67;;;;;;;;;;5021674;28;20425;-85
2022/03/17 14:08:42;;;;;;;10.80;3.58;;;;;;;;;;5020382;28;20576;-85
2022/03/17 14:11:10;;;;;;;11.07;3.00;;;;;;;;;;5021246;28;20527;-84
2022/03/17 14:13:38;;;;;;;13.82;3.10;;;;;;;;;;5021104;28;20441;-82
2022/03/17 14:16:05;;;;;;;11.43;3.10;;;;;;;;;;5020961;28;20428;-84
2022/03/17 14:18:31;;;;;;;12.05;3.17;;;;;;;;;;5020856;28;20421;-85
2022/03/17 14:20:59;;;;;;;13.40;3.10;;;;;;;;;;5021979;28;20426;-85
2022/03/17 14:26:12;;;;;;;11.48;3.03;;;;;;;;;;5020382;28;20413;-84
2022/03/17 14:28:40;;;;;;;10.18;3.50;;;;;;;;;;5021993;28;20411;-84
2022/03/17 14:31:06;;;;;;;13.93;3.85;;;;;;;;;;5021428;28;20485;-84
2022/03/17 14:33:36;;;;;;;11.95;2.90;;;;;;;;;;5020639;28;20439;-84
2022/03/17 14:36:02;;;;;;;12.70;3.58;;;;;;;;;;5020182;28;20445;-85
2022/03/17 14:38:29;;;;;;;11.05;3.10;;;;;;;;;;5020065;28;20936;-84
2022/03/17 14:40:55;;;;;;;9.75;3.20;;;;;;;;;;5019580;28;20432;-84
2022/03/17 14:43:21;;;;;;;12.85;3.30;;;;;;;;;;5019556;28;20434;-84
2022/03/17 14:45:49;;;;;;;8.20;3.17;;;;;;;;;;5020328;28;20422;-84
2022/03/17 14:48:15;;;;;;;9.52;2.97;;;;;;;;;;5019991;28;20490;-85
2022/03/17 14:50:42;;;;;;;12.98;3.28;;;;;;;;;;5019741;28;20425;-84
2022/03/17 14:53:09;;;;;;;10.38;3.20;;;;;;;;;;5019710;28;20436;-84